sensor_id;sensor_type;location;lat;lon;timestamp;temperature;humidity
17954;DHT22;9102;53.548;9.926;2023-04-03T00:00:39;2.30;99.90
17954;DHT22;9102;53.548;9.926;2023-04-03T00:03:06;2.40;99.90
17954;DHT22;9102;53.548;9.926;2023-04-03T00:05:33;2.40;99.90
17954;DHT22;9102;53.548;9.926;2023-04-03T00:08:01;2.50;99.90
17954;DHT22;9102;53.548;9.926;2023-04-03T00:10:28;2.50;99.90
17954;DHT22;9102;53.548;9.926;2023-04-03T00:12:55;2.50;99.90
17954;DHT22;9102;53.548;9.926;2023-04-03T00:15:23;2.50;99.90
17954;DHT22;9102;53.548;9.926;2023-04-03T00:17:50;2.50;99.90
17954;DHT22;9102;53.548;9.926;2023-04-03T00:20:17;2.50;99.90
17954;DHT22;9102;53.548;9.926;2023-04-03T00:22:43;2.50;99.90
17954;DHT22;9102;53.548;9.926;2023-04-03T00:25:11;2.50;99.90
17954;DHT22;9102;53.548;9.926;2023-04-03T00:27:38;2.50;99.90
17954;DHT22;9102;53.548;9.926;2023-04-03T00:30:07;2.50;99.90
17954;DHT22;9102;53.548;9.926;2023-04-03T00:32:36;2.50;99.90
17954;DHT22;9102;53.548;9.926;2023-04-03T00:35:03;2.50;99.90
17954;DHT22;9102;53.548;9.926;2023-04-03T00:37:30;2.60;99.90
17954;DHT22;9102;53.548;9.926;2023-04-03T00:39:57;2.60;99.90
17954;DHT22;9102;53.548;9.926;2023-04-03T00:42:24;2.60;99.90
17954;DHT22;9102;53.548;9.926;2023-04-03T00:47:56;2.60;99.90
17954;DHT22;9102;53.548;9.926;2023-04-03T00:50:25;2.60;99.90
17954;DHT22;9102;53.548;9.926;2023-04-03T00:52:53;2.60;99.90
17954;DHT22;9102;53.548;9.926;2023-04-03T00:55:20;2.60;99.90
17954;DHT22;9102;53.548;9.926;2023-04-03T00:57:48;2.60;99.90
17954;DHT22;9102;53.548;9.926;2023-04-03T01:00:19;2.60;99.90
17954;DHT22;9102;53.548;9.926;2023-04-03T01:02:46;2.50;99.90
17954;DHT22;9102;53.548;9.926;2023-04-03T01:05:15;2.50;99.90
17954;DHT22;9102;53.548;9.926;2023-04-03T01:07:42;2.50;99.90
17954;DHT22;9102;53.548;9.926;2023-04-03T01:10:12;2.50;99.90
17954;DHT22;9102;53.548;9.926;2023-04-03T01:12:42;2.50;99.90
17954;DHT22;9102;53.548;9.926;2023-04-03T01:15:11;2.50;99.90
17954;DHT22;9102;53.548;9.926;2023-04-03T01:17:40;2.50;99.90
17954;DHT22;9102;53.548;9.926;2023-04-03T01:23:27;2.50;99.90
17954;DHT22;9102;53.548;9.926;2023-04-03T01:25:57;2.40;99.90
17954;DHT22;9102;53.548;9.926;2023-04-03T01:28:26;2.40;99.90
17954;DHT22;9102;53.548;9.926;2023-04-03T01:30:59;2.40;99.90
17954;DHT22;9102;53.548;9.926;2023-04-03T01:33:28;2.40;99.90
17954;DHT22;9102;53.548;9.926;2023-04-03T01:35:55;2.40;99.90
17954;DHT22;9102;53.548;9.926;2023-04-03T01:38:22;2.40;99.90
17954;DHT22;9102;53.548;9.926;2023-04-03T01:40:49;2.40;99.90
17954;DHT22;9102;53.548;9.926;2023-04-03T01:43:16;2.40;99.90
17954;DHT22;9102;53.548;9.926;2023-04-03T01:45:44;2.40;99.90
17954;DHT22;9102;53.548;9.926;2023-04-03T01:48:11;2.30;99.90
17954;DHT22;9102;53.548;9.926;2023-04-03T01:50:40;2.30;99.90
17954;DHT22;9102;53.548;9.926;2023-04-03T01:53:06;2.30;99.90
17954;DHT22;9102;53.548;9.926;2023-04-03T01:55:33;2.20;99.90
17954;DHT22;9102;53.548;9.926;2023-04-03T01:58:00;2.20;99.90
17954;DHT22;9102;53.548;9.926;2023-04-03T02:00:27;2.20;99.90
17954;DHT22;9102;53.548;9.926;2023-04-03T02:02:54;2.20;99.90
17954;DHT22;9102;53.548;9.926;2023-04-03T02:05:21;2.20;99.90
17954;DHT22;9102;53.548;9.926;2023-04-03T02:07:49;2.10;99.90
17954;DHT22;9102;53.548;9.926;2023-04-03T02:10:16;2.10;99.90
17954;DHT22;9102;53.548;9.926;2023-04-03T02:12:43;2.10;99.90
17954;DHT22;9102;53.548;9.926;2023-04-03T02:15:09;2.10;99.90
17954;DHT22;9102;53.548;9.926;2023-04-03T02:17:36;2.10;99.90
17954;DHT22;9102;53.548;9.926;2023-04-03T02:20:04;2.00;99.90
17954;DHT22;9102;53.548;9.926;2023-04-03T02:22:31;2.00;99.90
17954;DHT22;9102;53.548;9.926;2023-04-03T02:24:59;1.90;99.90
17954;DHT22;9102;53.548;9.926;2023-04-03T02:27:26;1.90;99.90
17954;DHT22;9102;53.548;9.926;2023-04-03T02:29:53;1.90;99.90
17954;DHT22;9102;53.548;9.926;2023-04-03T02:32:20;1.90;99.90
17954;DHT22;9102;53.548;9.926;2023-04-03T02:34:47;2.00;99.90
17954;DHT22;9102;53.548;9.926;2023-04-03T02:37:13;1.90;99.90
17954;DHT22;9102;53.548;9.926;2023-04-03T02:39:40;1.90;99.90
17954;DHT22;9102;53.548;9.926;2023-04-03T02:42:08;1.80;99.90
17954;DHT22;9102;53.548;9.926;2023-04-03T02:44:35;1.80;99.90
17954;DHT22;9102;53.548;9.926;2023-04-03T02:47:02;1.70;99.90
17954;DHT22;9102;53.548;9.926;2023-04-03T02:49:29;1.70;99.90
17954;DHT22;9102;53.548;9.926;2023-04-03T02:51:56;1.70;99.90
17954;DHT22;9102;53.548;9.926;2023-04-03T02:54:22;1.70;99.90
17954;DHT22;9102;53.548;9.926;2023-04-03T02:56:53;1.60;99.90
17954;DHT22;9102;53.548;9.926;2023-04-03T02:59:21;1.60;99.90
17954;DHT22;9102;53.548;9.926;2023-04-03T03:01:48;1.60;99.90
17954;DHT22;9102;53.548;9.926;2023-04-03T03:04:15;1.50;99.90
17954;DHT22;9102;53.548;9.926;2023-04-03T03:06:42;1.50;99.90
17954;DHT22;9102;53.548;9.926;2023-04-03T03:09:08;1.50;99.90
17954;DHT22;9102;53.548;9.926;2023-04-03T03:11:35;1.40;99.90
17954;DHT22;9102;53.548;9.926;2023-04-03T03:14:02;1.40;99.90
17954;DHT22;9102;53.548;9.926;2023-04-03T03:16:30;1.40;99.90
17954;DHT22;9102;53.548;9.926;2023-04-03T03:18:57;1.40;99.90
17954;DHT22;9102;53.548;9.926;2023-04-03T03:21:24;1.40;99.90
17954;DHT22;9102;53.548;9.926;2023-04-03T03:23:51;1.40;99.90
17954;DHT22;9102;53.548;9.926;2023-04-03T03:26:18;1.40;99.90
17954;DHT22;9102;53.548;9.926;2023-04-03T03:28:45;1.40;99.90
17954;DHT22;9102;53.548;9.926;2023-04-03T03:31:11;1.40;99.90
17954;DHT22;9102;53.548;9.926;2023-04-03T03:33:40;1.30;99.90
17954;DHT22;9102;53.548;9.926;2023-04-03T03:36:07;1.40;99.90
17954;DHT22;9102;53.548;9.926;2023-04-03T03:38:33;1.30;99.90
17954;DHT22;9102;53.548;9.926;2023-04-03T03:41:00;1.30;99.90
17954;DHT22;9102;53.548;9.926;2023-04-03T03:43:27;1.30;99.90
17954;DHT22;9102;53.548;9.926;2023-04-03T03:45:54;1.20;99.90
17954;DHT22;9102;53.548;9.926;2023-04-03T03:48:21;1.20;99.90
17954;DHT22;9102;53.548;9.926;2023-04-03T03:50:50;1.30;99.90
17954;DHT22;9102;53.548;9.926;2023-04-03T03:53:16;1.20;99.90
17954;DHT22;9102;53.548;9.926;2023-04-03T03:55:44;1.20;99.90
17954;DHT22;9102;53.548;9.926;2023-04-03T03:58:11;1.20;99.90
17954;DHT22;9102;53.548;9.926;2023-04-03T04:00:38;1.20;99.90
17954;DHT22;9102;53.548;9.926;2023-04-03T04:03:04;1.20;99.90
17954;DHT22;9102;53.548;9.926;2023-04-03T04:05:32;1.20;99.90
17954;DHT22;9102;53.548;9.926;2023-04-03T04:08:01;1.20;99.90
17954;DHT22;9102;53.548;9.926;2023-04-03T04:10:28;1.10;99.90
17954;DHT22;9102;53.548;9.926;2023-04-03T04:12:54;1.10;99.90
17954;DHT22;9102;53.548;9.926;2023-04-03T04:15:21;1.20;99.90
17954;DHT22;9102;53.548;9.926;2023-04-03T04:17:48;1.20;99.90
17954;DHT22;9102;53.548;9.926;2023-04-03T04:20:15;1.20;99.90
17954;DHT22;9102;53.548;9.926;2023-04-03T04:22:42;1.10;99.90
17954;DHT22;9102;53.548;9.926;2023-04-03T04:25:10;1.10;99.90
17954;DHT22;9102;53.548;9.926;2023-04-03T04:27:37;1.10;99.90
17954;DHT22;9102;53.548;9.926;2023-04-03T04:30:05;1.00;99.90
17954;DHT22;9102;53.548;9.926;2023-04-03T04:32:32;1.10;99.90
17954;DHT22;9102;53.548;9.926;2023-04-03T04:34:59;1.10;99.90
17954;DHT22;9102;53.548;9.926;2023-04-03T04:37:26;1.10;99.90
17954;DHT22;9102;53.548;9.926;2023-04-03T04:39:53;1.10;99.90
17954;DHT22;9102;53.548;9.926;2023-04-03T04:42:21;1.10;99.90
17954;DHT22;9102;53.548;9.926;2023-04-03T04:44:48;1.10;99.90
17954;DHT22;9102;53.548;9.926;2023-04-03T04:47:15;1.10;99.90
17954;DHT22;9102;53.548;9.926;2023-04-03T04:49:41;1.10;99.90
17954;DHT22;9102;53.548;9.926;2023-04-03T04:52:08;1.10;99.90
17954;DHT22;9102;53.548;9.926;2023-04-03T04:54:35;1.10;99.90
17954;DHT22;9102;53.548;9.926;2023-04-03T04:57:02;1.10;99.90
17954;DHT22;9102;53.548;9.926;2023-04-03T04:59:30;1.00;99.90
17954;DHT22;9102;53.548;9.926;2023-04-03T05:01:56;1.00;99.90
17954;DHT22;9102;53.548;9.926;2023-04-03T05:04:23;1.00;99.90
17954;DHT22;9102;53.548;9.926;2023-04-03T05:06:50;1.10;99.90
17954;DHT22;9102;53.548;9.926;2023-04-03T05:09:17;1.00;99.90
17954;DHT22;9102;53.548;9.926;2023-04-03T05:11:45;1.00;99.90
17954;DHT22;9102;53.548;9.926;2023-04-03T05:14:12;1.10;99.90
17954;DHT22;9102;53.548;9.926;2023-04-03T05:16:40;1.00;99.90
17954;DHT22;9102;53.548;9.926;2023-04-03T05:19:08;1.00;99.90
17954;DHT22;9102;53.548;9.926;2023-04-03T05:21:35;1.00;99.90
17954;DHT22;9102;53.548;9.926;2023-04-03T05:24:02;1.00;99.90
17954;DHT22;9102;53.548;9.926;2023-04-03T05:26:29;1.10;99.90
17954;DHT22;9102;53.548;9.926;2023-04-03T05:28:56;1.10;99.90
17954;DHT22;9102;53.548;9.926;2023-04-03T05:31:23;1.10;99.90
17954;DHT22;9102;53.548;9.926;2023-04-03T05:33:51;1.10;99.90
17954;DHT22;9102;53.548;9.926;2023-04-03T05:36:18;1.20;99.90
17954;DHT22;9102;53.548;9.926;2023-04-03T05:38:45;1.20;99.90
17954;DHT22;9102;53.548;9.926;2023-04-03T05:41:12;1.20;99.90
17954;DHT22;9102;53.548;9.926;2023-04-03T05:43:39;1.30;99.90
17954;DHT22;9102;53.548;9.926;2023-04-03T05:46:09;1.30;99.90
17954;DHT22;9102;53.548;9.926;2023-04-03T05:48:36;1.30;99.90
17954;DHT22;9102;53.548;9.926;2023-04-03T05:51:06;1.40;99.90
17954;DHT22;9102;53.548;9.926;2023-04-03T05:53:35;1.40;99.90
17954;DHT22;9102;53.548;9.926;2023-04-03T05:56:02;1.50;99.90
17954;DHT22;9102;53.548;9.926;2023-04-03T05:58:29;1.50;99.90
17954;DHT22;9102;53.548;9.926;2023-04-03T06:00:56;1.50;99.90
17954;DHT22;9102;53.548;9.926;2023-04-03T06:03:23;1.60;99.90
17954;DHT22;9102;53.548;9.926;2023-04-03T06:05:50;1.70;99.90
17954;DHT22;9102;53.548;9.926;2023-04-03T06:08:18;1.80;99.90
17954;DHT22;9102;53.548;9.926;2023-04-03T06:10:45;1.80;99.90
17954;DHT22;9102;53.548;9.926;2023-04-03T06:13:12;1.90;99.90
17954;DHT22;9102;53.548;9.926;2023-04-03T06:15:39;2.00;99.90
17954;DHT22;9102;53.548;9.926;2023-04-03T06:18:06;2.10;99.90
17954;DHT22;9102;53.548;9.926;2023-04-03T06:20:33;2.10;99.90
17954;DHT22;9102;53.548;9.926;2023-04-03T06:23:00;2.20;99.90
17954;DHT22;9102;53.548;9.926;2023-04-03T06:25:29;2.30;99.90
17954;DHT22;9102;53.548;9.926;2023-04-03T06:27:57;2.40;99.90
17954;DHT22;9102;53.548;9.926;2023-04-03T06:30:23;2.50;99.90
17954;DHT22;9102;53.548;9.926;2023-04-03T06:32:50;2.50;99.90
17954;DHT22;9102;53.548;9.926;2023-04-03T06:35:18;2.60;99.90
17954;DHT22;9102;53.548;9.926;2023-04-03T06:37:44;2.70;99.90
17954;DHT22;9102;53.548;9.926;2023-04-03T06:40:15;2.80;99.90
17954;DHT22;9102;53.548;9.926;2023-04-03T06:42:46;2.90;99.90
17954;DHT22;9102;53.548;9.926;2023-04-03T06:45:13;2.90;99.90
17954;DHT22;9102;53.548;9.926;2023-04-03T06:47:40;3.00;99.90
17954;DHT22;9102;53.548;9.926;2023-04-03T06:50:08;3.20;99.90
17954;DHT22;9102;53.548;9.926;2023-04-03T06:52:37;3.20;99.90
17954;DHT22;9102;53.548;9.926;2023-04-03T06:55:05;3.40;99.90
17954;DHT22;9102;53.548;9.926;2023-04-03T06:57:32;3.40;99.90
17954;DHT22;9102;53.548;9.926;2023-04-03T07:00:01;3.50;99.90
17954;DHT22;9102;53.548;9.926;2023-04-03T07:02:28;3.60;99.90
17954;DHT22;9102;53.548;9.926;2023-04-03T07:04:55;3.60;99.90
17954;DHT22;9102;53.548;9.926;2023-04-03T07:07:22;3.70;99.90
17954;DHT22;9102;53.548;9.926;2023-04-03T07:09:49;3.80;99.90
17954;DHT22;9102;53.548;9.926;2023-04-03T07:12:16;3.90;99.90
17954;DHT22;9102;53.548;9.926;2023-04-03T07:14:43;4.00;99.90
17954;DHT22;9102;53.548;9.926;2023-04-03T07:17:11;4.10;99.90
17954;DHT22;9102;53.548;9.926;2023-04-03T07:19:38;4.20;99.90
17954;DHT22;9102;53.548;9.926;2023-04-03T07:22:05;4.30;99.90
17954;DHT22;9102;53.548;9.926;2023-04-03T07:24:33;4.40;99.90
17954;DHT22;9102;53.548;9.926;2023-04-03T07:27:01;4.40;99.90
17954;DHT22;9102;53.548;9.926;2023-04-03T07:29:28;4.60;99.90
17954;DHT22;9102;53.548;9.926;2023-04-03T07:31:55;4.60;99.90
17954;DHT22;9102;53.548;9.926;2023-04-03T07:34:24;4.70;99.90
17954;DHT22;9102;53.548;9.926;2023-04-03T07:36:51;4.80;99.90
17954;DHT22;9102;53.548;9.926;2023-04-03T07:39:17;4.80;99.90
17954;DHT22;9102;53.548;9.926;2023-04-03T07:41:45;4.90;99.90
17954;DHT22;9102;53.548;9.926;2023-04-03T07:44:12;5.00;99.90
17954;DHT22;9102;53.548;9.926;2023-04-03T07:46:38;5.10;99.90
17954;DHT22;9102;53.548;9.926;2023-04-03T07:49:06;5.20;99.90
17954;DHT22;9102;53.548;9.926;2023-04-03T07:51:34;5.20;99.90
17954;DHT22;9102;53.548;9.926;2023-04-03T07:54:01;5.30;99.90
17954;DHT22;9102;53.548;9.926;2023-04-03T07:56:28;5.30;99.90
17954;DHT22;9102;53.548;9.926;2023-04-03T07:58:55;5.30;99.90
17954;DHT22;9102;53.548;9.926;2023-04-03T08:01:22;5.40;99.90
17954;DHT22;9102;53.548;9.926;2023-04-03T08:03:48;5.40;99.90
17954;DHT22;9102;53.548;9.926;2023-04-03T08:06:16;5.40;99.90
17954;DHT22;9102;53.548;9.926;2023-04-03T08:08:44;5.50;99.90
17954;DHT22;9102;53.548;9.926;2023-04-03T08:11:11;5.40;99.90
17954;DHT22;9102;53.548;9.926;2023-04-03T08:13:38;5.50;99.90
17954;DHT22;9102;53.548;9.926;2023-04-03T08:16:08;5.40;99.90
17954;DHT22;9102;53.548;9.926;2023-04-03T08:18:35;5.40;99.90
17954;DHT22;9102;53.548;9.926;2023-04-03T08:21:06;5.50;99.90
17954;DHT22;9102;53.548;9.926;2023-04-03T08:23:33;5.60;99.90
17954;DHT22;9102;53.548;9.926;2023-04-03T08:26:05;5.60;99.90
17954;DHT22;9102;53.548;9.926;2023-04-03T08:28:32;5.60;99.90
17954;DHT22;9102;53.548;9.926;2023-04-03T08:31:03;5.70;99.90
17954;DHT22;9102;53.548;9.926;2023-04-03T08:33:31;5.80;99.90
17954;DHT22;9102;53.548;9.926;2023-04-03T08:35:58;5.80;99.90
17954;DHT22;9102;53.548;9.926;2023-04-03T08:38:25;5.90;99.90
17954;DHT22;9102;53.548;9.926;2023-04-03T08:41:04;6.00;99.90
17954;DHT22;9102;53.548;9.926;2023-04-03T08:43:38;6.00;99.90
17954;DHT22;9102;53.548;9.926;2023-04-03T08:46:10;6.10;99.90
17954;DHT22;9102;53.548;9.926;2023-04-03T08:48:41;6.10;99.90
17954;DHT22;9102;53.548;9.926;2023-04-03T08:51:12;6.10;99.90
17954;DHT22;9102;53.548;9.926;2023-04-03T08:53:43;6.20;99.90
17954;DHT22;9102;53.548;9.926;2023-04-03T08:56:12;6.30;99.90
17954;DHT22;9102;53.548;9.926;2023-04-03T08:58:47;6.40;99.90
17954;DHT22;9102;53.548;9.926;2023-04-03T09:01:19;6.40;99.90
17954;DHT22;9102;53.548;9.926;2023-04-03T09:03:46;6.40;99.90
17954;DHT22;9102;53.548;9.926;2023-04-03T09:06:15;6.40;99.90
17954;DHT22;9102;53.548;9.926;2023-04-03T09:08:48;6.50;99.90
17954;DHT22;9102;53.548;9.926;2023-04-03T09:11:21;6.60;99.90
17954;DHT22;9102;53.548;9.926;2023-04-03T09:13:54;6.70;99.90
17954;DHT22;9102;53.548;9.926;2023-04-03T09:16:33;6.70;99.90
17954;DHT22;9102;53.548;9.926;2023-04-03T09:19:07;6.80;99.90
17954;DHT22;9102;53.548;9.926;2023-04-03T09:21:37;6.90;99.90
17954;DHT22;9102;53.548;9.926;2023-04-03T09:24:06;7.10;99.90
17954;DHT22;9102;53.548;9.926;2023-04-03T09:26:39;7.10;99.90
17954;DHT22;9102;53.548;9.926;2023-04-03T09:29:10;6.90;99.50
17954;DHT22;9102;53.548;9.926;2023-04-03T09:31:43;6.80;99.80
17954;DHT22;9102;53.548;9.926;2023-04-03T09:34:18;6.90;99.90
17954;DHT22;9102;53.548;9.926;2023-04-03T09:36:48;7.10;99.60
17954;DHT22;9102;53.548;9.926;2023-04-03T09:39:18;7.20;98.60
17954;DHT22;9102;53.548;9.926;2023-04-03T09:41:59;7.20;98.90
17954;DHT22;9102;53.548;9.926;2023-04-03T09:44:28;7.20;97.60
17954;DHT22;9102;53.548;9.926;2023-04-03T09:46:55;7.20;94.10
17954;DHT22;9102;53.548;9.926;2023-04-03T09:49:22;7.10;93.80
17954;DHT22;9102;53.548;9.926;2023-04-03T09:51:49;7.30;94.40
17954;DHT22;9102;53.548;9.926;2023-04-03T09:54:31;7.50;93.80
17954;DHT22;9102;53.548;9.926;2023-04-03T09:57:06;7.60;93.70
17954;DHT22;9102;53.548;9.926;2023-04-03T09:59:34;7.70;91.10
17954;DHT22;9102;53.548;9.926;2023-04-03T10:02:03;7.70;88.70
17954;DHT22;9102;53.548;9.926;2023-04-03T10:04:39;7.70;89.30
17954;DHT22;9102;53.548;9.926;2023-04-03T10:07:28;7.60;88.90
17954;DHT22;9102;53.548;9.926;2023-04-03T10:09:57;8.00;90.60
17954;DHT22;9102;53.548;9.926;2023-04-03T10:12:25;8.20;89.50
17954;DHT22;9102;53.548;9.926;2023-04-03T10:14:57;8.00;86.50
17954;DHT22;9102;53.548;9.926;2023-04-03T10:17:48;8.10;87.00
17954;DHT22;9102;53.548;9.926;2023-04-03T10:20:27;8.30;85.50
17954;DHT22;9102;53.548;9.926;2023-04-03T10:23:05;8.00;82.60
17954;DHT22;9102;53.548;9.926;2023-04-03T10:25:40;7.40;80.30
17954;DHT22;9102;53.548;9.926;2023-04-03T10:28:15;7.40;81.00
17954;DHT22;9102;53.548;9.926;2023-04-03T10:30:51;7.30;79.60
17954;DHT22;9102;53.548;9.926;2023-04-03T10:33:29;7.30;80.80
17954;DHT22;9102;53.548;9.926;2023-04-03T10:36:10;7.60;81.30
17954;DHT22;9102;53.548;9.926;2023-04-03T10:38:46;7.70;80.20
17954;DHT22;9102;53.548;9.926;2023-04-03T10:41:19;7.50;78.20
17954;DHT22;9102;53.548;9.926;2023-04-03T10:43:55;7.60;78.60
17954;DHT22;9102;53.548;9.926;2023-04-03T10:46:28;7.70;78.90
17954;DHT22;9102;53.548;9.926;2023-04-03T10:49:10;7.70;78.90
17954;DHT22;9102;53.548;9.926;2023-04-03T10:51:43;7.70;79.30
17954;DHT22;9102;53.548;9.926;2023-04-03T10:54:13;7.80;79.70
17954;DHT22;9102;53.548;9.926;2023-04-03T10:56:46;7.90;78.60
17954;DHT22;9102;53.548;9.926;2023-04-03T10:59:21;8.00;77.00
17954;DHT22;9102;53.548;9.926;2023-04-03T11:01:52;8.10;75.70
17954;DHT22;9102;53.548;9.926;2023-04-03T11:04:21;8.20;76.30
17954;DHT22;9102;53.548;9.926;2023-04-03T11:06:56;8.30;74.70
17954;DHT22;9102;53.548;9.926;2023-04-03T11:09:27;8.30;74.80
17954;DHT22;9102;53.548;9.926;2023-04-03T11:11:58;8.30;74.70
17954;DHT22;9102;53.548;9.926;2023-04-03T11:14:30;8.30;74.40
17954;DHT22;9102;53.548;9.926;2023-04-03T11:17:05;8.50;75.40
17954;DHT22;9102;53.548;9.926;2023-04-03T11:19:35;8.70;75.70
17954;DHT22;9102;53.548;9.926;2023-04-03T11:22:09;8.60;74.40
17954;DHT22;9102;53.548;9.926;2023-04-03T11:24:40;8.70;74.80
17954;DHT22;9102;53.548;9.926;2023-04-03T11:27:13;8.90;75.00
17954;DHT22;9102;53.548;9.926;2023-04-03T11:29:45;9.00;74.50
17954;DHT22;9102;53.548;9.926;2023-04-03T11:32:27;9.20;73.90
17954;DHT22;9102;53.548;9.926;2023-04-03T11:34:58;9.40;74.30
17954;DHT22;9102;53.548;9.926;2023-04-03T11:37:31;9.40;74.50
17954;DHT22;9102;53.548;9.926;2023-04-03T11:40:02;9.30;74.30
17954;DHT22;9102;53.548;9.926;2023-04-03T11:42:33;8.90;74.40
17954;DHT22;9102;53.548;9.926;2023-04-03T11:45:26;8.70;75.50
17954;DHT22;9102;53.548;9.926;2023-04-03T11:47:57;8.60;75.10
17954;DHT22;9102;53.548;9.926;2023-04-03T11:50:42;8.50;75.70
17954;DHT22;9102;53.548;9.926;2023-04-03T11:53:29;8.50;75.90
17954;DHT22;9102;53.548;9.926;2023-04-03T11:56:01;8.50;76.20
17954;DHT22;9102;53.548;9.926;2023-04-03T11:58:30;8.90;76.70
17954;DHT22;9102;53.548;9.926;2023-04-03T12:01:09;9.50;75.20
17954;DHT22;9102;53.548;9.926;2023-04-03T12:07:01;9.80;73.40
17954;DHT22;9102;53.548;9.926;2023-04-03T12:09:34;10.60;73.20
17954;DHT22;9102;53.548;9.926;2023-04-03T12:12:23;10.90;71.10
17954;DHT22;9102;53.548;9.926;2023-04-03T12:14:51;11.10;68.90
17954;DHT22;9102;53.548;9.926;2023-04-03T12:17:25;10.10;67.40
17954;DHT22;9102;53.548;9.926;2023-04-03T12:19:53;9.50;70.20
17954;DHT22;9102;53.548;9.926;2023-04-03T12:22:20;9.20;72.50
17954;DHT22;9102;53.548;9.926;2023-04-03T12:24:49;9.20;74.00
17954;DHT22;9102;53.548;9.926;2023-04-03T12:27:34;9.40;74.50
17954;DHT22;9102;53.548;9.926;2023-04-03T12:30:10;9.60;75.50
17954;DHT22;9102;53.548;9.926;2023-04-03T12:36:18;9.90;72.90
17954;DHT22;9102;53.548;9.926;2023-04-03T12:42:18;10.20;70.50
17954;DHT22;9102;53.548;9.926;2023-04-03T12:44:55;10.30;69.80
17954;DHT22;9102;53.548;9.926;2023-04-03T12:47:28;10.30;70.30
17954;DHT22;9102;53.548;9.926;2023-04-03T12:50:00;10.30;70.10
17954;DHT22;9102;53.548;9.926;2023-04-03T12:52:33;10.30;71.00
17954;DHT22;9102;53.548;9.926;2023-04-03T12:55:02;10.50;70.70
17954;DHT22;9102;53.548;9.926;2023-04-03T12:57:30;10.50;69.70
17954;DHT22;9102;53.548;9.926;2023-04-03T12:59:58;10.60;69.50
17954;DHT22;9102;53.548;9.926;2023-04-03T13:02:27;10.60;68.90
17954;DHT22;9102;53.548;9.926;2023-04-03T13:04:55;10.50;68.60
17954;DHT22;9102;53.548;9.926;2023-04-03T13:07:29;10.20;69.50
17954;DHT22;9102;53.548;9.926;2023-04-03T13:10:00;9.90;70.20
17954;DHT22;9102;53.548;9.926;2023-04-03T13:12:28;9.40;69.90
17954;DHT22;9102;53.548;9.926;2023-04-03T13:14:58;8.90;70.80
17954;DHT22;9102;53.548;9.926;2023-04-03T13:17:26;8.50;71.50
17954;DHT22;9102;53.548;9.926;2023-04-03T13:19:54;8.50;72.20
17954;DHT22;9102;53.548;9.926;2023-04-03T13:22:28;8.60;72.40
17954;DHT22;9102;53.548;9.926;2023-04-03T13:24:59;8.90;73.00
17954;DHT22;9102;53.548;9.926;2023-04-03T13:27:29;8.70;71.40
17954;DHT22;9102;53.548;9.926;2023-04-03T13:29:59;8.70;71.70
17954;DHT22;9102;53.548;9.926;2023-04-03T13:32:29;8.70;70.60
17954;DHT22;9102;53.548;9.926;2023-04-03T13:34:56;8.80;70.80
17954;DHT22;9102;53.548;9.926;2023-04-03T13:37:26;9.00;71.40
17954;DHT22;9102;53.548;9.926;2023-04-03T13:40:11;9.30;71.80
17954;DHT22;9102;53.548;9.926;2023-04-03T13:42:39;9.40;71.00
17954;DHT22;9102;53.548;9.926;2023-04-03T13:45:18;9.40;70.80
17954;DHT22;9102;53.548;9.926;2023-04-03T13:47:47;9.30;70.50
17954;DHT22;9102;53.548;9.926;2023-04-03T13:50:17;9.10;70.90
17954;DHT22;9102;53.548;9.926;2023-04-03T13:52:48;9.10;71.20
17954;DHT22;9102;53.548;9.926;2023-04-03T13:55:21;8.90;70.70
17954;DHT22;9102;53.548;9.926;2023-04-03T13:57:53;8.80;69.50
17954;DHT22;9102;53.548;9.926;2023-04-03T14:00:28;8.60;68.90
17954;DHT22;9102;53.548;9.926;2023-04-03T14:02:56;8.50;68.70
17954;DHT22;9102;53.548;9.926;2023-04-03T14:05:23;8.30;68.80
17954;DHT22;9102;53.548;9.926;2023-04-03T14:07:51;8.30;70.30
17954;DHT22;9102;53.548;9.926;2023-04-03T14:10:19;8.40;70.20
17954;DHT22;9102;53.548;9.926;2023-04-03T14:12:46;8.50;70.00
17954;DHT22;9102;53.548;9.926;2023-04-03T14:15:18;8.60;70.00
17954;DHT22;9102;53.548;9.926;2023-04-03T14:17:46;8.80;70.30
17954;DHT22;9102;53.548;9.926;2023-04-03T14:20:15;8.80;69.70
17954;DHT22;9102;53.548;9.926;2023-04-03T14:22:43;8.90;68.40
17954;DHT22;9102;53.548;9.926;2023-04-03T14:25:10;8.90;66.90
17954;DHT22;9102;53.548;9.926;2023-04-03T14:27:40;8.80;66.20
17954;DHT22;9102;53.548;9.926;2023-04-03T14:30:11;8.60;67.90
17954;DHT22;9102;53.548;9.926;2023-04-03T14:32:39;8.60;69.40
17954;DHT22;9102;53.548;9.926;2023-04-03T14:35:06;8.80;71.20
17954;DHT22;9102;53.548;9.926;2023-04-03T14:37:33;8.90;70.00
17954;DHT22;9102;53.548;9.926;2023-04-03T14:40:07;8.90;68.90
17954;DHT22;9102;53.548;9.926;2023-04-03T14:42:36;8.80;69.30
17954;DHT22;9102;53.548;9.926;2023-04-03T14:45:07;8.70;68.20
17954;DHT22;9102;53.548;9.926;2023-04-03T14:47:39;8.70;69.50
17954;DHT22;9102;53.548;9.926;2023-04-03T14:50:10;8.70;69.50
17954;DHT22;9102;53.548;9.926;2023-04-03T14:52:39;8.70;68.80
17954;DHT22;9102;53.548;9.926;2023-04-03T14:55:06;8.80;69.60
17954;DHT22;9102;53.548;9.926;2023-04-03T14:57:34;8.40;69.40
17954;DHT22;9102;53.548;9.926;2023-04-03T15:00:01;8.50;70.10
17954;DHT22;9102;53.548;9.926;2023-04-03T15:02:32;8.70;71.10
17954;DHT22;9102;53.548;9.926;2023-04-03T15:05:00;8.80;71.50
17954;DHT22;9102;53.548;9.926;2023-04-03T15:07:30;8.80;71.40
17954;DHT22;9102;53.548;9.926;2023-04-03T15:09:57;8.70;71.50
17954;DHT22;9102;53.548;9.926;2023-04-03T15:12:25;8.60;71.80
17954;DHT22;9102;53.548;9.926;2023-04-03T15:14:52;8.50;71.60
17954;DHT22;9102;53.548;9.926;2023-04-03T15:17:21;8.50;72.30
17954;DHT22;9102;53.548;9.926;2023-04-03T15:19:50;8.50;72.40
17954;DHT22;9102;53.548;9.926;2023-04-03T15:22:18;8.70;72.10
17954;DHT22;9102;53.548;9.926;2023-04-03T15:24:45;8.70;72.00
17954;DHT22;9102;53.548;9.926;2023-04-03T15:27:13;8.70;72.00
17954;DHT22;9102;53.548;9.926;2023-04-03T15:29:42;8.80;72.50
17954;DHT22;9102;53.548;9.926;2023-04-03T15:32:10;8.70;73.10
17954;DHT22;9102;53.548;9.926;2023-04-03T15:34:37;8.80;73.60
17954;DHT22;9102;53.548;9.926;2023-04-03T15:37:06;8.80;72.80
17954;DHT22;9102;53.548;9.926;2023-04-03T15:39:32;8.60;73.30
17954;DHT22;9102;53.548;9.926;2023-04-03T15:41:59;8.60;73.40
17954;DHT22;9102;53.548;9.926;2023-04-03T15:44:31;8.50;73.20
17954;DHT22;9102;53.548;9.926;2023-04-03T15:46:58;8.30;73.90
17954;DHT22;9102;53.548;9.926;2023-04-03T15:49:26;8.30;74.70
17954;DHT22;9102;53.548;9.926;2023-04-03T15:51:52;8.20;75.80
17954;DHT22;9102;53.548;9.926;2023-04-03T15:54:21;8.20;77.10
17954;DHT22;9102;53.548;9.926;2023-04-03T15:56:49;8.20;77.10
17954;DHT22;9102;53.548;9.926;2023-04-03T15:59:16;8.20;77.10
17954;DHT22;9102;53.548;9.926;2023-04-03T16:01:43;8.20;77.40
17954;DHT22;9102;53.548;9.926;2023-04-03T16:04:10;8.10;77.90
17954;DHT22;9102;53.548;9.926;2023-04-03T16:06:37;8.10;78.70
17954;DHT22;9102;53.548;9.926;2023-04-03T16:09:04;8.10;78.10
17954;DHT22;9102;53.548;9.926;2023-04-03T16:11:33;8.10;78.40
17954;DHT22;9102;53.548;9.926;2023-04-03T16:14:00;8.10;78.50
17954;DHT22;9102;53.548;9.926;2023-04-03T16:16:27;8.00;78.20
17954;DHT22;9102;53.548;9.926;2023-04-03T16:18:55;8.00;78.70
17954;DHT22;9102;53.548;9.926;2023-04-03T16:21:23;7.90;78.90
17954;DHT22;9102;53.548;9.926;2023-04-03T16:23:50;7.80;78.80
17954;DHT22;9102;53.548;9.926;2023-04-03T16:26:17;7.80;79.40
17954;DHT22;9102;53.548;9.926;2023-04-03T16:28:45;7.80;79.70
17954;DHT22;9102;53.548;9.926;2023-04-03T16:31:12;7.80;79.90